sensor_id;sensor_type;location;lat;lon;timestamp;P1;durP1;ratioP1;P2;durP2;ratioP2
5622;SDS011;2833;50.432;10.706;2023-04-24T00:00:36;1.70;;;1.60;;
5622;SDS011;2833;50.432;10.706;2023-04-24T00:03:03;2.23;;;2.03;;
5622;SDS011;2833;50.432;10.706;2023-04-24T00:05:28;2.63;;;2.00;;
5622;SDS011;2833;50.432;10.706;2023-04-24T00:07:53;1.73;;;1.63;;
5622;SDS011;2833;50.432;10.706;2023-04-24T00:10:19;4.43;;;3.23;;
5622;SDS011;2833;50.432;10.706;2023-04-24T00:12:44;2.13;;;1.93;;
5622;SDS011;2833;50.432;10.706;2023-04-24T00:15:09;2.13;;;2.00;;
5622;SDS011;2833;50.432;10.706;2023-04-24T00:17:35;3.03;;;2.60;;
5622;SDS011;2833;50.432;10.706;2023-04-24T00:20:00;2.10;;;2.00;;
5622;SDS011;2833;50.432;10.706;2023-04-24T00:22:27;1.90;;;1.80;;
5622;SDS011;2833;50.432;10.706;2023-04-24T00:24:53;2.20;;;2.00;;
5622;SDS011;2833;50.432;10.706;2023-04-24T00:27:18;2.03;;;1.90;;
5622;SDS011;2833;50.432;10.706;2023-04-24T00:29:43;2.30;;;2.10;;
5622;SDS011;2833;50.432;10.706;2023-04-24T00:32:08;2.50;;;2.30;;
5622;SDS011;2833;50.432;10.706;2023-04-24T00:34:33;2.20;;;2.00;;
5622;SDS011;2833;50.432;10.706;2023-04-24T00:36:59;2.60;;;2.40;;
5622;SDS011;2833;50.432;10.706;2023-04-24T00:39:24;3.60;;;2.40;;
5622;SDS011;2833;50.432;10.706;2023-04-24T00:41:49;2.60;;;2.40;;
5622;SDS011;2833;50.432;10.706;2023-04-24T00:44:15;2.80;;;2.60;;
5622;SDS011;2833;50.432;10.706;2023-04-24T00:46:41;2.93;;;2.67;;
5622;SDS011;2833;50.432;10.706;2023-04-24T00:49:07;2.80;;;2.60;;
5622;SDS011;2833;50.432;10.706;2023-04-24T00:51:32;2.40;;;2.30;;
5622;SDS011;2833;50.432;10.706;2023-04-24T00:53:58;2.90;;;2.70;;
5622;SDS011;2833;50.432;10.706;2023-04-24T00:56:23;2.93;;;2.70;;
5622;SDS011;2833;50.432;10.706;2023-04-24T00:58:48;3.30;;;2.80;;
5622;SDS011;2833;50.432;10.706;2023-04-24T01:01:14;2.87;;;2.67;;
5622;SDS011;2833;50.432;10.706;2023-04-24T01:03:39;3.27;;;2.97;;
5622;SDS011;2833;50.432;10.706;2023-04-24T01:06:04;2.70;;;2.50;;
5622;SDS011;2833;50.432;10.706;2023-04-24T01:08:30;3.93;;;2.87;;
5622;SDS011;2833;50.432;10.706;2023-04-24T01:10:55;3.00;;;2.80;;
5622;SDS011;2833;50.432;10.706;2023-04-24T01:13:22;2.70;;;2.50;;
5622;SDS011;2833;50.432;10.706;2023-04-24T01:15:47;5.50;;;3.03;;
5622;SDS011;2833;50.432;10.706;2023-04-24T01:18:13;4.00;;;2.90;;
5622;SDS011;2833;50.432;10.706;2023-04-24T01:20:41;3.30;;;2.83;;
5622;SDS011;2833;50.432;10.706;2023-04-24T01:23:07;4.33;;;3.30;;
5622;SDS011;2833;50.432;10.706;2023-04-24T01:25:33;2.50;;;2.33;;
5622;SDS011;2833;50.432;10.706;2023-04-24T01:27:58;2.83;;;2.60;;
5622;SDS011;2833;50.432;10.706;2023-04-24T01:30:24;2.63;;;2.43;;
5622;SDS011;2833;50.432;10.706;2023-04-24T01:32:49;3.27;;;2.60;;
5622;SDS011;2833;50.432;10.706;2023-04-24T01:35:14;4.80;;;2.90;;
5622;SDS011;2833;50.432;10.706;2023-04-24T01:37:39;3.13;;;2.83;;
5622;SDS011;2833;50.432;10.706;2023-04-24T01:40:05;2.60;;;2.40;;
5622;SDS011;2833;50.432;10.706;2023-04-24T01:42:31;2.63;;;2.43;;
5622;SDS011;2833;50.432;10.706;2023-04-24T01:44:56;2.93;;;2.73;;
5622;SDS011;2833;50.432;10.706;2023-04-24T01:47:22;2.70;;;2.50;;
5622;SDS011;2833;50.432;10.706;2023-04-24T01:49:48;4.20;;;2.93;;
5622;SDS011;2833;50.432;10.706;2023-04-24T01:52:13;3.00;;;2.77;;
5622;SDS011;2833;50.432;10.706;2023-04-24T01:54:38;2.97;;;2.70;;
5622;SDS011;2833;50.432;10.706;2023-04-24T01:57:03;9.50;;;2.33;;
5622;SDS011;2833;50.432;10.706;2023-04-24T01:59:29;2.70;;;2.50;;
5622;SDS011;2833;50.432;10.706;2023-04-24T02:01:54;2.67;;;2.47;;
5622;SDS011;2833;50.432;10.706;2023-04-24T02:04:20;3.60;;;2.80;;
5622;SDS011;2833;50.432;10.706;2023-04-24T02:06:45;2.57;;;2.37;;
5622;SDS011;2833;50.432;10.706;2023-04-24T02:09:10;2.73;;;2.40;;
5622;SDS011;2833;50.432;10.706;2023-04-24T02:11:36;2.70;;;2.50;;
5622;SDS011;2833;50.432;10.706;2023-04-24T02:14:01;2.70;;;2.50;;
5622;SDS011;2833;50.432;10.706;2023-04-24T02:16:27;2.70;;;2.43;;
5622;SDS011;2833;50.432;10.706;2023-04-24T02:18:55;2.63;;;2.30;;
5622;SDS011;2833;50.432;10.706;2023-04-24T02:21:20;3.57;;;2.30;;
5622;SDS011;2833;50.432;10.706;2023-04-24T02:23:45;2.63;;;2.43;;
5622;SDS011;2833;50.432;10.706;2023-04-24T02:26:10;2.50;;;2.30;;
5622;SDS011;2833;50.432;10.706;2023-04-24T02:28:35;4.90;;;2.50;;
5622;SDS011;2833;50.432;10.706;2023-04-24T02:31:01;2.60;;;2.40;;
5622;SDS011;2833;50.432;10.706;2023-04-24T02:33:26;3.97;;;2.30;;
5622;SDS011;2833;50.432;10.706;2023-04-24T02:35:51;2.67;;;2.47;;
5622;SDS011;2833;50.432;10.706;2023-04-24T02:38:16;2.40;;;2.20;;
5622;SDS011;2833;50.432;10.706;2023-04-24T02:40:41;2.33;;;2.23;;
5622;SDS011;2833;50.432;10.706;2023-04-24T02:43:07;3.97;;;2.50;;
5622;SDS011;2833;50.432;10.706;2023-04-24T02:45:32;2.80;;;1.90;;
5622;SDS011;2833;50.432;10.706;2023-04-24T02:47:59;2.60;;;2.00;;
5622;SDS011;2833;50.432;10.706;2023-04-24T02:50:24;3.77;;;2.30;;
5622;SDS011;2833;50.432;10.706;2023-04-24T02:52:49;2.47;;;2.00;;
5622;SDS011;2833;50.432;10.706;2023-04-24T02:55:15;1.97;;;1.87;;
5622;SDS011;2833;50.432;10.706;2023-04-24T02:57:40;1.80;;;1.70;;
5622;SDS011;2833;50.432;10.706;2023-04-24T03:00:05;1.87;;;1.77;;
5622;SDS011;2833;50.432;10.706;2023-04-24T03:02:32;2.20;;;2.00;;
5622;SDS011;2833;50.432;10.706;2023-04-24T03:04:57;3.70;;;1.93;;
5622;SDS011;2833;50.432;10.706;2023-04-24T03:07:22;2.23;;;1.67;;
5622;SDS011;2833;50.432;10.706;2023-04-24T03:09:49;2.23;;;1.70;;
5622;SDS011;2833;50.432;10.706;2023-04-24T03:12:14;3.30;;;1.80;;
5622;SDS011;2833;50.432;10.706;2023-04-24T03:14:39;5.33;;;2.10;;
5622;SDS011;2833;50.432;10.706;2023-04-24T03:17:04;1.70;;;1.60;;
5622;SDS011;2833;50.432;10.706;2023-04-24T03:19:29;8.37;;;2.17;;
5622;SDS011;2833;50.432;10.706;2023-04-24T03:21:55;1.70;;;1.60;;
5622;SDS011;2833;50.432;10.706;2023-04-24T03:24:20;1.80;;;1.70;;
5622;SDS011;2833;50.432;10.706;2023-04-24T03:26:45;1.93;;;1.83;;
5622;SDS011;2833;50.432;10.706;2023-04-24T03:29:10;1.77;;;1.63;;
5622;SDS011;2833;50.432;10.706;2023-04-24T03:31:36;2.03;;;1.70;;
5622;SDS011;2833;50.432;10.706;2023-04-24T03:34:01;2.30;;;1.70;;
5622;SDS011;2833;50.432;10.706;2023-04-24T03:36:26;1.70;;;1.60;;
5622;SDS011;2833;50.432;10.706;2023-04-24T03:38:52;1.63;;;1.53;;
5622;SDS011;2833;50.432;10.706;2023-04-24T03:41:17;2.73;;;1.50;;
5622;SDS011;2833;50.432;10.706;2023-04-24T03:43:43;2.60;;;1.90;;
5622;SDS011;2833;50.432;10.706;2023-04-24T03:46:09;2.80;;;1.70;;
5622;SDS011;2833;50.432;10.706;2023-04-24T03:48:34;1.87;;;1.67;;
5622;SDS011;2833;50.432;10.706;2023-04-24T03:50:59;1.77;;;1.60;;
5622;SDS011;2833;50.432;10.706;2023-04-24T03:53:25;1.63;;;1.50;;
5622;SDS011;2833;50.432;10.706;2023-04-24T03:55:51;1.80;;;1.70;;
5622;SDS011;2833;50.432;10.706;2023-04-24T03:58:16;2.73;;;1.60;;
5622;SDS011;2833;50.432;10.706;2023-04-24T04:00:42;2.60;;;1.77;;
5622;SDS011;2833;50.432;10.706;2023-04-24T04:03:09;1.77;;;1.43;;
5622;SDS011;2833;50.432;10.706;2023-04-24T04:05:34;2.10;;;1.50;;
5622;SDS011;2833;50.432;10.706;2023-04-24T04:07:59;1.30;;;1.20;;
5622;SDS011;2833;50.432;10.706;2023-04-24T04:10:25;1.70;;;1.60;;
5622;SDS011;2833;50.432;10.706;2023-04-24T04:12:50;6.20;;;1.40;;
5622;SDS011;2833;50.432;10.706;2023-04-24T04:15:15;1.90;;;1.60;;
5622;SDS011;2833;50.432;10.706;2023-04-24T04:17:40;3.00;;;1.40;;
5622;SDS011;2833;50.432;10.706;2023-04-24T04:20:06;1.50;;;1.40;;
5622;SDS011;2833;50.432;10.706;2023-04-24T04:22:34;1.43;;;1.33;;
5622;SDS011;2833;50.432;10.706;2023-04-24T04:24:59;1.50;;;1.40;;
5622;SDS011;2833;50.432;10.706;2023-04-24T04:27:25;2.03;;;1.60;;
5622;SDS011;2833;50.432;10.706;2023-04-24T04:29:50;1.30;;;1.20;;
5622;SDS011;2833;50.432;10.706;2023-04-24T04:32:15;3.93;;;1.60;;
5622;SDS011;2833;50.432;10.706;2023-04-24T04:34:41;3.03;;;1.53;;
5622;SDS011;2833;50.432;10.706;2023-04-24T04:37:06;1.63;;;1.50;;
5622;SDS011;2833;50.432;10.706;2023-04-24T04:39:32;1.40;;;1.30;;
5622;SDS011;2833;50.432;10.706;2023-04-24T04:41:57;1.37;;;1.27;;
5622;SDS011;2833;50.432;10.706;2023-04-24T04:44:23;9.10;;;1.60;;
5622;SDS011;2833;50.432;10.706;2023-04-24T04:46:48;1.73;;;1.30;;
5622;SDS011;2833;50.432;10.706;2023-04-24T04:49:14;2.77;;;1.80;;
5622;SDS011;2833;50.432;10.706;2023-04-24T04:51:41;1.97;;;1.77;;
5622;SDS011;2833;50.432;10.706;2023-04-24T04:54:06;1.50;;;1.40;;
5622;SDS011;2833;50.432;10.706;2023-04-24T04:56:32;5.70;;;1.40;;
5622;SDS011;2833;50.432;10.706;2023-04-24T04:58:57;1.50;;;1.40;;
5622;SDS011;2833;50.432;10.706;2023-04-24T05:01:24;1.70;;;1.13;;
5622;SDS011;2833;50.432;10.706;2023-04-24T05:03:50;1.60;;;1.50;;
5622;SDS011;2833;50.432;10.706;2023-04-24T05:06:15;3.13;;;1.50;;
5622;SDS011;2833;50.432;10.706;2023-04-24T05:08:40;2.30;;;1.83;;
5622;SDS011;2833;50.432;10.706;2023-04-24T05:11:05;2.10;;;1.70;;
5622;SDS011;2833;50.432;10.706;2023-04-24T05:13:31;2.90;;;1.90;;
5622;SDS011;2833;50.432;10.706;2023-04-24T05:15:56;1.73;;;1.63;;
5622;SDS011;2833;50.432;10.706;2023-04-24T05:18:22;3.43;;;1.80;;
5622;SDS011;2833;50.432;10.706;2023-04-24T05:20:47;5.80;;;1.70;;
5622;SDS011;2833;50.432;10.706;2023-04-24T05:23:12;1.40;;;1.30;;
5622;SDS011;2833;50.432;10.706;2023-04-24T05:25:37;4.20;;;1.70;;
5622;SDS011;2833;50.432;10.706;2023-04-24T05:28:04;2.40;;;1.70;;
5622;SDS011;2833;50.432;10.706;2023-04-24T05:30:30;3.53;;;1.93;;
5622;SDS011;2833;50.432;10.706;2023-04-24T05:32:55;2.50;;;1.70;;
5622;SDS011;2833;50.432;10.706;2023-04-24T05:35:20;1.53;;;1.43;;
5622;SDS011;2833;50.432;10.706;2023-04-24T05:37:45;2.57;;;1.40;;
5622;SDS011;2833;50.432;10.706;2023-04-24T05:40:11;2.50;;;1.73;;
5622;SDS011;2833;50.432;10.706;2023-04-24T05:42:36;2.60;;;1.70;;
5622;SDS011;2833;50.432;10.706;2023-04-24T05:45:01;1.93;;;1.47;;
5622;SDS011;2833;50.432;10.706;2023-04-24T05:47:26;1.70;;;1.60;;
5622;SDS011;2833;50.432;10.706;2023-04-24T05:49:52;1.90;;;1.40;;
5622;SDS011;2833;50.432;10.706;2023-04-24T05:52:17;1.30;;;1.20;;
5622;SDS011;2833;50.432;10.706;2023-04-24T05:54:42;2.50;;;2.30;;
5622;SDS011;2833;50.432;10.706;2023-04-24T05:57:07;2.30;;;1.50;;
5622;SDS011;2833;50.432;10.706;2023-04-24T05:59:36;1.27;;;1.20;;
5622;SDS011;2833;50.432;10.706;2023-04-24T06:02:02;3.23;;;1.57;;
5622;SDS011;2833;50.432;10.706;2023-04-24T06:04:28;1.73;;;1.40;;
5622;SDS011;2833;50.432;10.706;2023-04-24T06:06:53;1.60;;;1.47;;
5622;SDS011;2833;50.432;10.706;2023-04-24T06:09:21;2.30;;;2.20;;
5622;SDS011;2833;50.432;10.706;2023-04-24T06:11:46;2.93;;;1.57;;
5622;SDS011;2833;50.432;10.706;2023-04-24T06:14:11;2.60;;;1.30;;
5622;SDS011;2833;50.432;10.706;2023-04-24T06:16:36;2.60;;;1.30;;
5622;SDS011;2833;50.432;10.706;2023-04-24T06:19:03;1.50;;;1.40;;
5622;SDS011;2833;50.432;10.706;2023-04-24T06:21:28;1.70;;;1.60;;
5622;SDS011;2833;50.432;10.706;2023-04-24T06:23:54;2.87;;;1.60;;
5622;SDS011;2833;50.432;10.706;2023-04-24T06:26:20;2.53;;;1.40;;
5622;SDS011;2833;50.432;10.706;2023-04-24T06:28:47;1.40;;;1.30;;
5622;SDS011;2833;50.432;10.706;2023-04-24T06:31:12;3.03;;;1.30;;
5622;SDS011;2833;50.432;10.706;2023-04-24T06:33:37;1.50;;;1.40;;
5622;SDS011;2833;50.432;10.706;2023-04-24T06:36:02;2.23;;;1.50;;
5622;SDS011;2833;50.432;10.706;2023-04-24T06:38:28;1.40;;;1.30;;
5622;SDS011;2833;50.432;10.706;2023-04-24T06:40:54;1.80;;;1.70;;
5622;SDS011;2833;50.432;10.706;2023-04-24T06:43:19;1.60;;;1.50;;
5622;SDS011;2833;50.432;10.706;2023-04-24T06:45:45;2.63;;;1.43;;
5622;SDS011;2833;50.432;10.706;2023-04-24T06:48:11;4.40;;;1.43;;
5622;SDS011;2833;50.432;10.706;2023-04-24T06:50:37;3.73;;;2.00;;
5622;SDS011;2833;50.432;10.706;2023-04-24T06:53:02;1.60;;;1.50;;
5622;SDS011;2833;50.432;10.706;2023-04-24T06:55:27;1.70;;;1.60;;
5622;SDS011;2833;50.432;10.706;2023-04-24T06:57:52;1.60;;;1.50;;
5622;SDS011;2833;50.432;10.706;2023-04-24T07:00:18;2.13;;;1.57;;
5622;SDS011;2833;50.432;10.706;2023-04-24T07:02:43;1.80;;;1.70;;
5622;SDS011;2833;50.432;10.706;2023-04-24T07:05:08;1.60;;;1.50;;
5622;SDS011;2833;50.432;10.706;2023-04-24T07:07:33;1.57;;;1.47;;
5622;SDS011;2833;50.432;10.706;2023-04-24T07:09:59;1.63;;;1.53;;
5622;SDS011;2833;50.432;10.706;2023-04-24T07:12:25;3.10;;;1.53;;
5622;SDS011;2833;50.432;10.706;2023-04-24T07:14:50;1.70;;;1.60;;
5622;SDS011;2833;50.432;10.706;2023-04-24T07:17:15;2.87;;;1.77;;
5622;SDS011;2833;50.432;10.706;2023-04-24T07:19:41;7.10;;;1.87;;
5622;SDS011;2833;50.432;10.706;2023-04-24T07:22:06;1.87;;;1.67;;
5622;SDS011;2833;50.432;10.706;2023-04-24T07:24:31;1.97;;;1.80;;
5622;SDS011;2833;50.432;10.706;2023-04-24T07:26:57;2.30;;;2.03;;
5622;SDS011;2833;50.432;10.706;2023-04-24T07:29:23;2.03;;;1.93;;
5622;SDS011;2833;50.432;10.706;2023-04-24T07:31:48;1.40;;;1.30;;
5622;SDS011;2833;50.432;10.706;2023-04-24T07:34:13;1.10;;;1.00;;
5622;SDS011;2833;50.432;10.706;2023-04-24T07:36:38;2.23;;;1.90;;
5622;SDS011;2833;50.432;10.706;2023-04-24T07:39:04;1.63;;;1.43;;
5622;SDS011;2833;50.432;10.706;2023-04-24T07:41:29;3.00;;;2.03;;
5622;SDS011;2833;50.432;10.706;2023-04-24T07:43:54;2.00;;;1.80;;
5622;SDS011;2833;50.432;10.706;2023-04-24T07:46:20;2.20;;;2.00;;
5622;SDS011;2833;50.432;10.706;2023-04-24T07:48:45;1.50;;;1.40;;
5622;SDS011;2833;50.432;10.706;2023-04-24T07:51:12;2.20;;;2.00;;
5622;SDS011;2833;50.432;10.706;2023-04-24T07:53:38;2.17;;;1.97;;
5622;SDS011;2833;50.432;10.706;2023-04-24T07:56:03;1.90;;;1.70;;
5622;SDS011;2833;50.432;10.706;2023-04-24T07:58:29;2.70;;;2.50;;
5622;SDS011;2833;50.432;10.706;2023-04-24T08:00:54;1.93;;;1.83;;
5622;SDS011;2833;50.432;10.706;2023-04-24T08:03:19;5.13;;;2.00;;
5622;SDS011;2833;50.432;10.706;2023-04-24T08:05:45;3.53;;;1.80;;
5622;SDS011;2833;50.432;10.706;2023-04-24T08:08:10;1.87;;;1.70;;
5622;SDS011;2833;50.432;10.706;2023-04-24T08:10:35;2.00;;;1.90;;
5622;SDS011;2833;50.432;10.706;2023-04-24T08:13:00;2.40;;;2.20;;
5622;SDS011;2833;50.432;10.706;2023-04-24T08:15:27;2.10;;;2.00;;
5622;SDS011;2833;50.432;10.706;2023-04-24T08:17:52;2.23;;;2.03;;
5622;SDS011;2833;50.432;10.706;2023-04-24T08:20:17;1.90;;;1.80;;
5622;SDS011;2833;50.432;10.706;2023-04-24T08:22:42;1.87;;;1.70;;
5622;SDS011;2833;50.432;10.706;2023-04-24T08:25:08;1.73;;;1.63;;
5622;SDS011;2833;50.432;10.706;2023-04-24T08:27:34;2.30;;;2.10;;
5622;SDS011;2833;50.432;10.706;2023-04-24T08:29:59;2.50;;;2.30;;
5622;SDS011;2833;50.432;10.706;2023-04-24T08:32:25;2.70;;;1.90;;
5622;SDS011;2833;50.432;10.706;2023-04-24T08:34:52;2.90;;;2.00;;
5622;SDS011;2833;50.432;10.706;2023-04-24T08:37:18;8.57;;;2.10;;
5622;SDS011;2833;50.432;10.706;2023-04-24T08:39:43;3.00;;;1.73;;
5622;SDS011;2833;50.432;10.706;2023-04-24T08:42:08;15.63;;;2.13;;
5622;SDS011;2833;50.432;10.706;2023-04-24T08:44:34;7.13;;;2.63;;
5622;SDS011;2833;50.432;10.706;2023-04-24T08:47:01;3.23;;;2.40;;
5622;SDS011;2833;50.432;10.706;2023-04-24T08:49:27;2.63;;;2.43;;
5622;SDS011;2833;50.432;10.706;2023-04-24T08:51:53;2.80;;;2.57;;
5622;SDS011;2833;50.432;10.706;2023-04-24T08:54:18;2.80;;;2.40;;
5622;SDS011;2833;50.432;10.706;2023-04-24T08:56:44;2.70;;;2.30;;
5622;SDS011;2833;50.432;10.706;2023-04-24T08:59:09;2.40;;;2.20;;
5622;SDS011;2833;50.432;10.706;2023-04-24T09:01:35;4.13;;;2.20;;
5622;SDS011;2833;50.432;10.706;2023-04-24T09:04:02;2.33;;;2.13;;
5622;SDS011;2833;50.432;10.706;2023-04-24T09:06:28;2.50;;;2.30;;
5622;SDS011;2833;50.432;10.706;2023-04-24T09:08:55;2.60;;;2.40;;
5622;SDS011;2833;50.432;10.706;2023-04-24T09:11:21;1.73;;;1.63;;
5622;SDS011;2833;50.432;10.706;2023-04-24T09:13:49;2.40;;;2.20;;
5622;SDS011;2833;50.432;10.706;2023-04-24T09:16:14;2.40;;;2.20;;
5622;SDS011;2833;50.432;10.706;2023-04-24T09:18:40;2.80;;;2.60;;
5622;SDS011;2833;50.432;10.706;2023-04-24T09:21:08;2.53;;;2.33;;
5622;SDS011;2833;50.432;10.706;2023-04-24T09:23:33;2.90;;;2.20;;
5622;SDS011;2833;50.432;10.706;2023-04-24T09:25:59;2.73;;;2.03;;
5622;SDS011;2833;50.432;10.706;2023-04-24T09:31:02;1.97;;;1.87;;
5622;SDS011;2833;50.432;10.706;2023-04-24T09:33:28;3.87;;;2.80;;
5622;SDS011;2833;50.432;10.706;2023-04-24T09:35:53;2.83;;;2.60;;
5622;SDS011;2833;50.432;10.706;2023-04-24T09:38:18;2.40;;;2.20;;
5622;SDS011;2833;50.432;10.706;2023-04-24T09:40:45;2.23;;;1.93;;
5622;SDS011;2833;50.432;10.706;2023-04-24T09:43:10;2.73;;;2.43;;
5622;SDS011;2833;50.432;10.706;2023-04-24T09:45:36;2.03;;;1.93;;
5622;SDS011;2833;50.432;10.706;2023-04-24T09:48:02;2.20;;;2.10;;
5622;SDS011;2833;50.432;10.706;2023-04-24T09:50:29;2.43;;;2.10;;
5622;SDS011;2833;50.432;10.706;2023-04-24T09:52:57;15.43;;;7.73;;
5622;SDS011;2833;50.432;10.706;2023-04-24T09:55:23;14.03;;;7.37;;
5622;SDS011;2833;50.432;10.706;2023-04-24T10:00:13;12.00;;;7.50;;
5622;SDS011;2833;50.432;10.706;2023-04-24T10:02:42;8.70;;;5.50;;
5622;SDS011;2833;50.432;10.706;2023-04-24T10:05:09;5.83;;;3.70;;
5622;SDS011;2833;50.432;10.706;2023-04-24T10:07:37;3.00;;;2.80;;
5622;SDS011;2833;50.432;10.706;2023-04-24T10:10:02;2.23;;;2.07;;
5622;SDS011;2833;50.432;10.706;2023-04-24T10:12:27;2.20;;;2.00;;
5622;SDS011;2833;50.432;10.706;2023-04-24T10:14:53;2.33;;;2.13;;
5622;SDS011;2833;50.432;10.706;2023-04-24T10:17:19;3.17;;;2.20;;
5622;SDS011;2833;50.432;10.706;2023-04-24T10:19:46;2.20;;;2.00;;
5622;SDS011;2833;50.432;10.706;2023-04-24T10:22:12;3.27;;;2.57;;
5622;SDS011;2833;50.432;10.706;2023-04-24T10:24:37;3.80;;;2.47;;
5622;SDS011;2833;50.432;10.706;2023-04-24T10:27:03;6.63;;;2.30;;
5622;SDS011;2833;50.432;10.706;2023-04-24T10:29:28;2.90;;;1.40;;
5622;SDS011;2833;50.432;10.706;2023-04-24T10:31:56;2.53;;;2.33;;
5622;SDS011;2833;50.432;10.706;2023-04-24T10:34:21;2.70;;;2.50;;
5622;SDS011;2833;50.432;10.706;2023-04-24T10:36:53;2.50;;;2.30;;
5622;SDS011;2833;50.432;10.706;2023-04-24T10:39:19;3.03;;;1.87;;
5622;SDS011;2833;50.432;10.706;2023-04-24T10:41:46;3.67;;;2.70;;
5622;SDS011;2833;50.432;10.706;2023-04-24T10:44:13;2.70;;;2.40;;
5622;SDS011;2833;50.432;10.706;2023-04-24T10:46:42;2.93;;;2.63;;
5622;SDS011;2833;50.432;10.706;2023-04-24T10:49:08;1.73;;;1.63;;
5622;SDS011;2833;50.432;10.706;2023-04-24T10:51:49;2.50;;;2.30;;
5622;SDS011;2833;50.432;10.706;2023-04-24T10:54:33;2.23;;;2.03;;
5622;SDS011;2833;50.432;10.706;2023-04-24T10:59:43;2.43;;;2.23;;
5622;SDS011;2833;50.432;10.706;2023-04-24T11:02:08;4.13;;;2.37;;
5622;SDS011;2833;50.432;10.706;2023-04-24T11:04:34;3.40;;;2.67;;
5622;SDS011;2833;50.432;10.706;2023-04-24T11:07:00;4.60;;;3.90;;
5622;SDS011;2833;50.432;10.706;2023-04-24T11:09:30;4.50;;;3.77;;
5622;SDS011;2833;50.432;10.706;2023-04-24T11:12:05;2.60;;;2.40;;
5622;SDS011;2833;50.432;10.706;2023-04-24T11:17:35;3.03;;;2.73;;
5622;SDS011;2833;50.432;10.706;2023-04-24T11:20:04;2.33;;;2.13;;
5622;SDS011;2833;50.432;10.706;2023-04-24T11:22:33;3.63;;;2.70;;
5622;SDS011;2833;50.432;10.706;2023-04-24T11:24:59;2.67;;;2.47;;
5622;SDS011;2833;50.432;10.706;2023-04-24T11:27:27;2.90;;;2.10;;
5622;SDS011;2833;50.432;10.706;2023-04-24T11:32:23;3.20;;;2.10;;
5622;SDS011;2833;50.432;10.706;2023-04-24T11:34:49;3.00;;;2.27;;
5622;SDS011;2833;50.432;10.706;2023-04-24T11:37:15;2.77;;;2.57;;
5622;SDS011;2833;50.432;10.706;2023-04-24T11:39:40;3.20;;;2.70;;
5622;SDS011;2833;50.432;10.706;2023-04-24T11:42:06;2.50;;;2.27;;
5622;SDS011;2833;50.432;10.706;2023-04-24T11:44:33;4.20;;;2.60;;
5622;SDS011;2833;50.432;10.706;2023-04-24T11:46:58;2.37;;;2.10;;
5622;SDS011;2833;50.432;10.706;2023-04-24T11:49:23;3.40;;;2.77;;
5622;SDS011;2833;50.432;10.706;2023-04-24T11:51:49;2.70;;;2.50;;
5622;SDS011;2833;50.432;10.706;2023-04-24T11:54:14;2.30;;;2.00;;
5622;SDS011;2833;50.432;10.706;2023-04-24T11:56:44;2.63;;;2.43;;
5622;SDS011;2833;50.432;10.706;2023-04-24T11:59:09;3.50;;;3.20;;
5622;SDS011;2833;50.432;10.706;2023-04-24T12:01:46;4.80;;;2.60;;
5622;SDS011;2833;50.432;10.706;2023-04-24T12:04:12;4.27;;;3.00;;
5622;SDS011;2833;50.432;10.706;2023-04-24T12:06:37;2.33;;;2.13;;
5622;SDS011;2833;50.432;10.706;2023-04-24T12:09:03;2.70;;;2.50;;
5622;SDS011;2833;50.432;10.706;2023-04-24T12:11:28;2.90;;;2.70;;
5622;SDS011;2833;50.432;10.706;2023-04-24T12:13:53;1.53;;;1.27;;
5622;SDS011;2833;50.432;10.706;2023-04-24T12:16:18;3.03;;;2.57;;
5622;SDS011;2833;50.432;10.706;2023-04-24T12:18:44;2.70;;;2.50;;
5622;SDS011;2833;50.432;10.706;2023-04-24T12:21:14;3.63;;;2.73;;
5622;SDS011;2833;50.432;10.706;2023-04-24T12:23:42;3.73;;;2.30;;
5622;SDS011;2833;50.432;10.706;2023-04-24T12:26:07;2.57;;;2.37;;
5622;SDS011;2833;50.432;10.706;2023-04-24T12:28:36;3.00;;;2.80;;
5622;SDS011;2833;50.432;10.706;2023-04-24T12:31:01;2.20;;;2.00;;
5622;SDS011;2833;50.432;10.706;2023-04-24T12:33:27;3.03;;;2.73;;
5622;SDS011;2833;50.432;10.706;2023-04-24T12:35:52;2.20;;;2.10;;
5622;SDS011;2833;50.432;10.706;2023-04-24T12:38:24;2.17;;;2.00;;
5622;SDS011;2833;50.432;10.706;2023-04-24T12:40:58;3.33;;;2.60;;
5622;SDS011;2833;50.432;10.706;2023-04-24T12:43:26;2.30;;;2.10;;
5622;SDS011;2833;50.432;10.706;2023-04-24T12:45:51;2.50;;;2.30;;
5622;SDS011;2833;50.432;10.706;2023-04-24T12:48:16;3.30;;;2.30;;
5622;SDS011;2833;50.432;10.706;2023-04-24T12:50:41;2.43;;;2.23;;
5622;SDS011;2833;50.432;10.706;2023-04-24T12:53:07;2.17;;;2.07;;
5622;SDS011;2833;50.432;10.706;2023-04-24T12:55:33;1.70;;;1.60;;
5622;SDS011;2833;50.432;10.706;2023-04-24T12:57:58;2.77;;;2.50;;
5622;SDS011;2833;50.432;10.706;2023-04-24T13:00:24;2.63;;;2.43;;
5622;SDS011;2833;50.432;10.706;2023-04-24T13:02:49;2.90;;;1.90;;
5622;SDS011;2833;50.432;10.706;2023-04-24T13:05:14;2.40;;;2.20;;
5622;SDS011;2833;50.432;10.706;2023-04-24T13:07:40;2.00;;;1.90;;
5622;SDS011;2833;50.432;10.706;2023-04-24T13:10:05;2.13;;;1.93;;
5622;SDS011;2833;50.432;10.706;2023-04-24T13:12:31;2.77;;;2.57;;
5622;SDS011;2833;50.432;10.706;2023-04-24T13:14:57;3.20;;;2.00;;
5622;SDS011;2833;50.432;10.706;2023-04-24T13:17:22;2.90;;;2.70;;
5622;SDS011;2833;50.432;10.706;2023-04-24T13:19:48;1.50;;;1.40;;
5622;SDS011;2833;50.432;10.706;2023-04-24T13:22:14;1.80;;;1.63;;
5622;SDS011;2833;50.432;10.706;2023-04-24T13:24:39;2.23;;;2.07;;
5622;SDS011;2833;50.432;10.706;2023-04-24T13:27:05;2.23;;;1.93;;
5622;SDS011;2833;50.432;10.706;2023-04-24T13:29:30;2.13;;;2.03;;
5622;SDS011;2833;50.432;10.706;2023-04-24T13:31:56;2.57;;;2.30;;
5622;SDS011;2833;50.432;10.706;2023-04-24T13:34:22;2.30;;;2.20;;
5622;SDS011;2833;50.432;10.706;2023-04-24T13:36:47;2.10;;;1.93;;
5622;SDS011;2833;50.432;10.706;2023-04-24T13:39:12;1.90;;;1.77;;
5622;SDS011;2833;50.432;10.706;2023-04-24T13:41:37;1.60;;;1.50;;
5622;SDS011;2833;50.432;10.706;2023-04-24T13:44:03;1.67;;;1.57;;
5622;SDS011;2833;50.432;10.706;2023-04-24T13:46:28;2.27;;;1.90;;
5622;SDS011;2833;50.432;10.706;2023-04-24T13:48:54;1.90;;;1.70;;
5622;SDS011;2833;50.432;10.706;2023-04-24T13:51:19;2.23;;;1.83;;
5622;SDS011;2833;50.432;10.706;2023-04-24T13:53:44;2.00;;;1.90;;
5622;SDS011;2833;50.432;10.706;2023-04-24T13:56:09;1.90;;;1.80;;
5622;SDS011;2833;50.432;10.706;2023-04-24T13:58:35;1.37;;;1.27;;
5622;SDS011;2833;50.432;10.706;2023-04-24T14:01:02;2.77;;;1.70;;
5622;SDS011;2833;50.432;10.706;2023-04-24T14:03:27;1.30;;;1.20;;
5622;SDS011;2833;50.432;10.706;2023-04-24T14:05:52;1.40;;;1.20;;
5622;SDS011;2833;50.432;10.706;2023-04-24T14:08:17;1.90;;;1.80;;
5622;SDS011;2833;50.432;10.706;2023-04-24T14:10:43;1.90;;;1.80;;
5622;SDS011;2833;50.432;10.706;2023-04-24T14:13:08;2.00;;;1.40;;
5622;SDS011;2833;50.432;10.706;2023-04-24T14:15:35;1.40;;;1.30;;
5622;SDS011;2833;50.432;10.706;2023-04-24T14:18:00;1.53;;;1.43;;
5622;SDS011;2833;50.432;10.706;2023-04-24T14:20:25;1.83;;;1.60;;
5622;SDS011;2833;50.432;10.706;2023-04-24T14:22:50;1.27;;;1.17;;
5622;SDS011;2833;50.432;10.706;2023-04-24T14:25:16;1.10;;;1.00;;
5622;SDS011;2833;50.432;10.706;2023-04-24T14:27:41;1.67;;;1.57;;
5622;SDS011;2833;50.432;10.706;2023-04-24T14:30:07;1.20;;;1.13;;
5622;SDS011;2833;50.432;10.706;2023-04-24T14:32:32;1.87;;;1.23;;
5622;SDS011;2833;50.432;10.706;2023-04-24T14:34:57;1.40;;;1.30;;
5622;SDS011;2833;50.432;10.706;2023-04-24T14:37:22;2.07;;;1.50;;
5622;SDS011;2833;50.432;10.706;2023-04-24T14:39:47;1.53;;;1.43;;
5622;SDS011;2833;50.432;10.706;2023-04-24T14:42:13;2.10;;;1.40;;
5622;SDS011;2833;50.432;10.706;2023-04-24T14:44:38;1.50;;;1.40;;
5622;SDS011;2833;50.432;10.706;2023-04-24T14:47:03;1.70;;;1.60;;
5622;SDS011;2833;50.432;10.706;2023-04-24T14:49:29;1.40;;;1.30;;
5622;SDS011;2833;50.432;10.706;2023-04-24T14:51:54;1.90;;;1.20;;
5622;SDS011;2833;50.432;10.706;2023-04-24T14:54:19;1.40;;;1.30;;
5622;SDS011;2833;50.432;10.706;2023-04-24T14:56:47;1.40;;;1.30;;
5622;SDS011;2833;50.432;10.706;2023-04-24T14:59:13;1.50;;;1.40;;
5622;SDS011;2833;50.432;10.706;2023-04-24T15:01:38;1.40;;;1.30;;
5622;SDS011;2833;50.432;10.706;2023-04-24T15:04:04;1.53;;;1.33;;